createdAt,value
2018-12-21T00:02:02.809Z,-2.65
2018-12-21T00:04:31.080Z,-2.53
2018-12-21T00:06:59.311Z,-2.53
2018-12-21T00:09:27.527Z,-2.56
2018-12-21T00:11:55.735Z,-2.69
2018-12-21T00:14:23.911Z,-2.60
2018-12-21T00:16:52.049Z,-2.21
2018-12-21T00:19:20.222Z,-2.26
2018-12-21T00:21:48.397Z,-1.93
2018-12-21T00:24:16.689Z,-2.15
2018-12-21T00:26:44.854Z,-2.18
2018-12-21T00:29:13.010Z,-2.12
2018-12-21T00:31:46.647Z,-1.80
2018-12-21T00:34:20.315Z,-1.65
2018-12-21T00:36:53.921Z,-1.72
2018-12-21T00:39:27.740Z,-1.58
2018-12-21T00:41:55.196Z,-1.70
2018-12-21T00:44:31.066Z,-1.84
2018-12-21T00:47:01.472Z,-1.86
2018-12-21T00:49:29.764Z,-1.35
2018-12-21T00:51:57.916Z,-1.47
2018-12-21T00:54:26.104Z,-1.44
2018-12-21T00:56:54.285Z,-1.41
2018-12-21T00:59:22.536Z,-1.44
2018-12-21T01:01:50.879Z,-1.59
2018-12-21T01:04:19.184Z,-1.81
2018-12-21T01:06:47.497Z,-1.30
2018-12-21T01:09:15.656Z,-1.18
2018-12-21T01:11:43.846Z,-1.45
2018-12-21T01:14:12.214Z,-1.51
2018-12-21T01:16:40.491Z,-1.27
2018-12-21T01:19:08.739Z,-1.23
2018-12-21T01:21:38.923Z,-0.91
2018-12-21T01:24:07.156Z,-1.17
2018-12-21T01:26:35.388Z,-0.71
2018-12-21T01:29:03.604Z,-0.66
2018-12-21T01:31:31.788Z,-0.63
2018-12-21T01:33:59.998Z,-0.95
2018-12-21T01:36:28.321Z,-1.06
2018-12-21T01:38:56.600Z,-1.57
2018-12-21T01:41:24.858Z,-1.60
2018-12-21T01:43:53.039Z,-1.27
2018-12-21T01:46:21.221Z,-1.50
2018-12-21T01:48:49.489Z,-1.52
2018-12-21T01:51:17.612Z,-1.61
2018-12-21T01:53:45.826Z,-1.54
2018-12-21T01:56:13.992Z,-1.56
2018-12-21T01:58:42.309Z,-1.85
2018-12-21T02:01:10.395Z,-1.94
2018-12-21T02:03:38.540Z,-1.99
2018-12-21T02:06:06.829Z,-2.15
2018-12-21T02:08:35.050Z,-2.01
2018-12-21T02:11:03.306Z,-2.08
2018-12-21T02:13:31.557Z,-2.30
2018-12-21T02:15:59.744Z,-1.86
2018-12-21T02:18:27.896Z,-1.69
2018-12-21T02:20:56.040Z,-1.72
2018-12-21T02:23:24.271Z,-1.83
2018-12-21T02:25:52.400Z,-1.97
2018-12-21T02:28:20.527Z,-2.13
2018-12-21T02:30:48.689Z,-1.92
2018-12-21T02:33:16.841Z,-1.78
2018-12-21T02:35:45.040Z,-1.31
2018-12-21T02:38:13.351Z,-1.72
2018-12-21T02:40:41.611Z,-1.47
2018-12-21T02:43:09.900Z,-1.27
2018-12-21T02:45:37.995Z,-1.43
2018-12-21T02:48:06.212Z,-1.33
2018-12-21T02:50:34.426Z,-1.52
2018-12-21T02:53:02.767Z,-1.78
2018-12-21T02:55:30.962Z,-1.97
2018-12-21T02:57:59.316Z,-2.14
2018-12-21T03:00:27.567Z,-2.09
2018-12-21T03:02:55.683Z,-2.04
2018-12-21T03:05:23.856Z,-1.95
2018-12-21T03:07:52.001Z,-2.00
2018-12-21T03:10:20.185Z,-1.98
2018-12-21T03:12:48.408Z,-2.13
2018-12-21T03:15:16.589Z,-2.13
2018-12-21T03:17:44.900Z,-1.77
2018-12-21T03:20:13.099Z,-1.87
2018-12-21T03:22:41.337Z,-1.59
2018-12-21T03:25:09.519Z,-1.76
2018-12-21T03:27:37.712Z,-1.84
2018-12-21T03:30:06.859Z,-2.04
2018-12-21T03:32:35.415Z,-2.22
2018-12-21T03:35:03.998Z,-2.27
2018-12-21T03:37:32.111Z,-2.39
2018-12-21T03:40:00.296Z,-2.48
2018-12-21T03:42:28.572Z,-2.69
2018-12-21T03:44:56.735Z,-2.89
2018-12-21T03:47:25.017Z,-2.95
2018-12-21T03:49:53.215Z,-2.94
2018-12-21T03:52:24.510Z,-3.06
2018-12-21T03:54:51.716Z,-2.85
2018-12-21T03:57:20.590Z,-2.91
2018-12-21T03:59:48.872Z,-2.95
2018-12-21T04:02:17.138Z,-2.82
2018-12-21T04:04:45.410Z,-2.96
2018-12-21T04:07:13.647Z,-2.93
2018-12-21T04:09:42.301Z,-3.03
2018-12-21T04:12:11.383Z,-3.00
2018-12-21T04:14:39.911Z,-3.11
2018-12-21T04:17:08.127Z,-2.68
2018-12-21T04:19:36.771Z,-2.77
2018-12-21T04:22:05.359Z,-2.83
2018-12-21T04:24:33.760Z,-2.83
2018-12-21T04:27:02.146Z,-2.87
2018-12-21T04:29:30.783Z,-2.64
2018-12-21T04:31:59.731Z,-2.91
2018-12-21T04:34:27.965Z,-3.00
2018-12-21T04:36:56.627Z,-3.15
2018-12-21T04:39:25.753Z,-3.18
2018-12-21T04:41:54.685Z,-3.18
2018-12-21T04:44:23.455Z,-3.24
2018-12-21T04:46:52.069Z,-3.28
2018-12-21T04:49:20.710Z,-3.23
2018-12-21T04:51:48.928Z,-3.24
2018-12-21T04:54:17.276Z,-3.24
2018-12-21T04:56:45.666Z,-2.93
2018-12-21T04:59:13.901Z,-2.90
2018-12-21T05:01:42.192Z,-2.52
2018-12-21T05:04:19.515Z,-2.59
2018-12-21T05:06:40.622Z,-2.76
2018-12-21T05:09:08.808Z,-2.52
2018-12-21T05:11:37.134Z,-2.56
2018-12-21T05:14:12.095Z,-2.59
2018-12-21T05:16:40.716Z,-2.60
2018-12-21T05:19:09.653Z,-2.76
2018-12-21T05:21:38.196Z,-2.69
2018-12-21T05:24:06.840Z,-2.90
2018-12-21T05:26:35.092Z,-2.69
2018-12-21T05:29:03.308Z,-2.78
2018-12-21T05:31:31.543Z,-2.85
2018-12-21T05:34:00.012Z,-2.66
2018-12-21T05:36:28.405Z,-2.85
2018-12-21T05:38:56.705Z,-2.67
2018-12-21T05:41:25.302Z,-2.30
2018-12-21T05:46:36.858Z,-2.12
2018-12-21T05:49:05.496Z,-2.17
2018-12-21T05:51:44.074Z,-2.36
2018-12-21T05:54:12.775Z,-2.23
2018-12-21T05:56:41.379Z,-2.05
2018-12-21T05:59:09.805Z,-2.02
2018-12-21T06:01:38.319Z,-1.94
2018-12-21T06:04:06.916Z,-2.07
2018-12-21T06:06:35.116Z,-2.23
2018-12-21T06:09:04.622Z,-2.15
2018-12-21T06:11:32.781Z,-2.24
2018-12-21T06:14:01.176Z,-2.29
2018-12-21T06:16:29.668Z,-2.38
2018-12-21T06:18:57.760Z,-2.27
2018-12-21T06:21:26.032Z,-2.36
2018-12-21T06:23:54.273Z,-2.32
2018-12-21T06:26:22.566Z,-2.44
2018-12-21T06:28:50.836Z,-2.57
2018-12-21T06:31:18.997Z,-2.61
2018-12-21T06:33:52.720Z,-2.63
2018-12-21T06:36:27.549Z,-2.54
2018-12-21T06:38:55.877Z,-2.41
2018-12-21T06:41:24.064Z,-2.45
2018-12-21T06:43:52.299Z,-2.48
2018-12-21T06:46:20.575Z,-2.50
2018-12-21T06:48:48.867Z,-2.48
2018-12-21T06:51:17.204Z,-2.48
2018-12-21T06:53:45.342Z,-2.62
2018-12-21T06:56:13.564Z,-2.56
2018-12-21T06:58:41.750Z,-2.56
2018-12-21T07:01:09.911Z,-2.61
2018-12-21T07:03:38.030Z,-2.71
2018-12-21T07:06:09.434Z,-2.78
2018-12-21T07:08:37.616Z,-2.60
2018-12-21T07:11:06.122Z,-2.58
2018-12-21T07:13:34.325Z,-2.57
2018-12-21T07:16:02.456Z,-2.49
2018-12-21T07:18:30.616Z,-2.46
2018-12-21T07:21:03.526Z,-1.92
2018-12-21T07:23:33.725Z,-2.04
2018-12-21T07:26:01.948Z,-1.98
2018-12-21T07:28:30.168Z,-2.14
2018-12-21T07:30:59.056Z,-2.19
2018-12-21T07:33:29.724Z,-2.02
2018-12-21T07:36:08.119Z,-2.01
2018-12-21T07:38:30.724Z,-1.80
2018-12-21T07:40:59.115Z,-1.93
2018-12-21T07:43:29.699Z,-1.79
2018-12-21T07:45:57.844Z,-1.71
2018-12-21T07:48:29.311Z,-1.88
2018-12-21T07:51:01.428Z,-1.93
2018-12-21T08:09:32.435Z,-1.21
2018-12-21T08:12:01.181Z,-0.77
2018-12-21T08:14:30.502Z,-0.77
2018-12-21T08:17:01.141Z,-0.77
2018-12-21T08:19:32.169Z,-0.69
2018-12-21T08:22:01.655Z,-0.87
2018-12-21T08:24:31.072Z,-1.09
2018-12-21T08:27:00.810Z,-1.07
2018-12-21T08:29:30.394Z,-0.85
2018-12-21T08:31:58.576Z,-0.83
2018-12-21T08:34:26.710Z,-0.18
2018-12-21T08:36:58.993Z,-0.14
2018-12-21T08:39:28.264Z,-0.11
2018-12-21T08:41:56.573Z,-0.22
2018-12-21T08:44:25.259Z,-0.36
2018-12-21T08:46:53.715Z,-0.34
2018-12-21T08:49:24.308Z,-0.56
2018-12-21T08:51:52.952Z,-0.68
2018-12-21T08:54:21.404Z,-0.87
2018-12-21T08:56:51.033Z,-1.03
2018-12-21T08:59:19.364Z,-1.15
2018-12-21T09:01:48.432Z,-1.47
2018-12-21T09:04:16.652Z,-1.49
2018-12-21T09:06:44.926Z,-1.64
2018-12-21T09:09:13.132Z,-1.66
2018-12-21T09:11:44.213Z,-1.68
2018-12-21T09:14:12.422Z,-1.51
2018-12-21T09:16:40.686Z,-1.09
2018-12-21T09:19:09.104Z,-1.05
2018-12-21T09:21:37.917Z,-0.99
2018-12-21T09:24:09.177Z,-1.11
2018-12-21T09:26:37.278Z,-0.75
2018-12-21T09:29:07.651Z,-1.01
2018-12-21T09:31:37.647Z,-0.78
2018-12-21T09:34:06.626Z,-0.29
2018-12-21T09:36:35.077Z,-0.14
2018-12-21T09:39:04.791Z,-0.28
2018-12-21T09:41:34.557Z,-0.10
2018-12-21T09:44:03.066Z,-0.18
2018-12-21T09:46:36.055Z,-0.45
2018-12-21T09:49:08.773Z,-0.48
2018-12-21T09:51:39.682Z,-0.74
2018-12-21T09:54:10.110Z,-0.52
2018-12-21T09:56:38.080Z,-0.58
2018-12-21T09:59:08.045Z,-0.63
2018-12-21T10:01:36.313Z,-0.38
2018-12-21T10:04:07.876Z,-0.30
2018-12-21T10:06:36.123Z,-0.26
2018-12-21T10:09:06.469Z,-0.13
2018-12-21T10:11:34.745Z,0.00
2018-12-21T10:14:03.859Z,0.03
2018-12-21T10:16:32.506Z,-0.10
2018-12-21T10:19:00.637Z,0.05
2018-12-21T10:21:31.536Z,0.21
2018-12-21T10:24:00.393Z,0.40
2018-12-21T10:26:30.003Z,0.47
2018-12-21T10:28:58.378Z,0.58
2018-12-21T10:31:27.071Z,0.44
2018-12-21T10:33:55.659Z,0.31
2018-12-21T10:36:24.229Z,0.07
2018-12-21T10:38:53.025Z,0.17
2018-12-21T10:41:21.449Z,0.58
2018-12-21T10:43:49.873Z,0.81
2018-12-21T10:46:18.286Z,1.47
2018-12-21T10:48:46.558Z,1.31
2018-12-21T10:51:14.707Z,1.24
2018-12-21T10:53:46.576Z,1.26
2018-12-21T10:56:13.318Z,1.15
2018-12-21T10:58:41.526Z,1.45
2018-12-21T11:01:09.727Z,0.97
2018-12-21T11:03:37.906Z,0.83
2018-12-21T11:06:06.036Z,0.96
2018-12-21T11:08:34.392Z,1.00
2018-12-21T11:11:02.552Z,0.97
2018-12-21T11:13:30.739Z,1.05
2018-12-21T11:15:58.917Z,1.49
2018-12-21T11:18:27.120Z,1.46
2018-12-21T11:20:55.589Z,1.74
2018-12-21T11:23:23.763Z,1.62
2018-12-21T11:25:52.566Z,1.87
2018-12-21T11:28:25.362Z,1.84
2018-12-21T11:30:50.822Z,1.66
2018-12-21T11:33:18.970Z,1.60
2018-12-21T11:35:47.155Z,1.33
2018-12-21T11:38:15.394Z,1.34
2018-12-21T11:40:43.567Z,1.24
2018-12-21T11:43:11.727Z,1.32
2018-12-21T11:45:40.101Z,1.15
2018-12-21T11:48:08.211Z,1.20
2018-12-21T11:50:36.353Z,1.34
2018-12-21T11:53:04.570Z,1.40
2018-12-21T11:55:32.850Z,1.44
2018-12-21T11:58:01.029Z,1.30
2018-12-21T12:00:29.289Z,1.16
2018-12-21T12:02:57.555Z,1.01
2018-12-21T12:05:25.688Z,0.79
2018-12-21T12:07:54.082Z,0.91
2018-12-21T12:10:22.231Z,0.79
2018-12-21T12:12:50.463Z,0.44
2018-12-21T12:15:18.891Z,0.29
2018-12-21T12:17:46.994Z,0.27
2018-12-21T12:20:15.352Z,0.25
2018-12-21T12:22:43.463Z,0.19
2018-12-21T12:25:11.753Z,0.33
2018-12-21T12:27:39.875Z,0.21
2018-12-21T12:30:10.371Z,0.33
2018-12-21T12:32:38.634Z,0.15
2018-12-21T12:35:07.821Z,0.69
2018-12-21T12:37:35.937Z,0.75
2018-12-21T12:40:05.078Z,0.74
2018-12-21T12:42:33.407Z,0.37
2018-12-21T12:45:01.605Z,-0.03
2018-12-21T12:47:30.974Z,-0.35
2018-12-21T12:49:59.119Z,-0.46
2018-12-21T12:52:28.458Z,-1.11
2018-12-21T12:55:02.547Z,-0.49
2018-12-21T12:57:26.802Z,-0.44
2018-12-21T12:59:55.118Z,-0.21
2018-12-21T13:02:23.232Z,-0.37
2018-12-21T13:04:51.375Z,-0.34
2018-12-21T13:07:19.853Z,-0.37
2018-12-21T13:09:48.059Z,-0.14
2018-12-21T13:12:16.213Z,-0.04
2018-12-21T13:14:44.989Z,-0.01
2018-12-21T13:17:13.692Z,-0.05
2018-12-21T13:19:42.113Z,0.08
2018-12-21T13:22:10.433Z,0.28
2018-12-21T13:24:38.567Z,0.41
2018-12-21T13:27:06.655Z,0.41
2018-12-21T13:29:35.692Z,0.17
2018-12-21T13:32:03.909Z,0.36
2018-12-21T13:34:32.134Z,0.31
2018-12-21T13:37:00.423Z,0.18
2018-12-21T13:39:28.800Z,-0.03
2018-12-21T13:41:58.623Z,0.01
2018-12-21T13:44:26.817Z,0.15
2018-12-21T13:46:55.098Z,-0.07
2018-12-21T13:49:23.623Z,-0.34
2018-12-21T13:51:51.830Z,-0.59
2018-12-21T13:54:20.153Z,-0.73
2018-12-21T13:56:48.333Z,-0.84
2018-12-21T13:59:16.721Z,-0.83
2018-12-21T14:01:45.491Z,-0.79
2018-12-21T14:04:13.882Z,-0.89
2018-12-21T14:06:42.265Z,-0.77
2018-12-21T14:09:10.715Z,-1.33
2018-12-21T14:11:39.159Z,-0.34
2018-12-21T14:14:07.477Z,-0.41
2018-12-21T14:16:35.924Z,-0.41
2018-12-21T14:19:04.481Z,-0.84
2018-12-21T14:21:32.865Z,-0.88
2018-12-21T14:24:01.325Z,-0.92
2018-12-21T14:26:29.490Z,-0.94
2018-12-21T14:28:57.582Z,-1.02
2018-12-21T14:31:25.651Z,-1.05
2018-12-21T14:33:54.692Z,-1.13
2018-12-21T14:36:23.707Z,-1.20
2018-12-21T14:38:52.082Z,-1.43
2018-12-21T14:41:21.210Z,-1.42
2018-12-21T14:43:49.499Z,-1.46
2018-12-21T14:46:17.667Z,-1.27
2018-12-21T14:48:45.893Z,-1.22
2018-12-21T14:51:14.095Z,-0.86
2018-12-21T14:53:43.726Z,-0.86
2018-12-21T14:56:12.533Z,-1.08
2018-12-21T14:58:40.751Z,-1.41
2018-12-21T15:01:09.025Z,-1.33
2018-12-21T15:03:37.514Z,-1.10
2018-12-21T15:06:06.183Z,-1.24
2018-12-21T15:08:34.374Z,-1.23
2018-12-21T15:11:02.529Z,-1.33
2018-12-21T15:13:30.746Z,-1.42
2018-12-21T15:15:58.937Z,-1.41
2018-12-21T15:18:27.250Z,-1.39
2018-12-21T15:20:55.579Z,-1.48
2018-12-21T15:23:23.748Z,-1.54
2018-12-21T15:25:51.954Z,-1.58
2018-12-21T15:28:20.118Z,-1.56
2018-12-21T15:30:48.263Z,-1.51
2018-12-21T15:33:16.392Z,-1.44
2018-12-21T15:35:44.676Z,-1.48
2018-12-21T15:38:12.818Z,-1.53
2018-12-21T15:40:41.009Z,-1.47
2018-12-21T15:43:09.135Z,-1.43
2018-12-21T15:45:37.332Z,-1.50
2018-12-21T15:48:05.526Z,-1.39
2018-12-21T15:50:33.702Z,-1.30
2018-12-21T15:53:01.820Z,-1.34
2018-12-21T15:55:29.962Z,-1.28
2018-12-21T15:57:58.104Z,-1.56
2018-12-21T16:00:29.244Z,-1.46
2018-12-21T16:02:58.599Z,-1.37
2018-12-21T16:05:27.459Z,-1.33
2018-12-21T16:07:55.621Z,-1.27
2018-12-21T16:10:23.760Z,-1.28
2018-12-21T16:12:52.058Z,-1.13
2018-12-21T16:15:20.359Z,-1.32
2018-12-21T16:17:48.609Z,-1.32
2018-12-21T16:20:16.946Z,-1.41
2018-12-21T16:22:46.848Z,-1.50
2018-12-21T16:25:16.050Z,-1.34
2018-12-21T16:27:44.970Z,-1.33
2018-12-21T16:30:14.155Z,-1.14
2018-12-21T16:32:42.253Z,-1.46
2018-12-21T16:35:10.425Z,-1.44
2018-12-21T16:37:38.578Z,-1.32
2018-12-21T16:40:09.381Z,-1.19
2018-12-21T16:42:37.763Z,-1.16
2018-12-21T16:45:08.945Z,-1.03
2018-12-21T16:47:37.285Z,-0.98
2018-12-21T16:50:10.075Z,-0.89
2018-12-21T16:52:39.249Z,-1.12
2018-12-21T16:55:08.802Z,-1.28
2018-12-21T16:57:36.992Z,-1.26
2018-12-21T17:00:08.971Z,-1.20
2018-12-21T17:02:37.261Z,-1.01
2018-12-21T17:05:05.671Z,-1.17
2018-12-21T17:07:34.066Z,-1.24
2018-12-21T17:10:02.361Z,-1.22
2018-12-21T17:12:30.552Z,-1.06
2018-12-21T17:14:58.881Z,-1.01
2018-12-21T17:17:28.189Z,-1.22
2018-12-21T17:19:56.497Z,-1.21
2018-12-21T17:22:25.250Z,-1.30
2018-12-21T17:24:53.508Z,-1.40
2018-12-21T17:27:21.787Z,-1.50
2018-12-21T17:29:49.999Z,-1.44
2018-12-21T17:32:18.672Z,-1.48
2018-12-21T17:34:47.172Z,-1.53
2018-12-21T17:37:15.444Z,-1.56
2018-12-21T17:39:43.690Z,-1.60
2018-12-21T17:42:13.758Z,-1.72
2018-12-21T17:44:42.563Z,-1.59
2018-12-21T17:47:10.798Z,-1.71
2018-12-21T17:49:40.254Z,-1.52
2018-12-21T17:52:08.462Z,-1.49
2018-12-21T17:54:37.796Z,-1.58
2018-12-21T17:57:06.647Z,-1.38
2018-12-21T17:59:35.814Z,-1.79
2018-12-21T18:02:05.377Z,-2.15
2018-12-21T18:04:33.696Z,-2.39
2018-12-21T18:07:01.916Z,-2.53
2018-12-21T18:09:35.784Z,-2.74
2018-12-21T18:12:04.312Z,-2.80
2018-12-21T18:14:32.573Z,-2.52
2018-12-21T18:17:01.929Z,-2.28
2018-12-21T18:19:30.097Z,-2.07
2018-12-21T18:22:12.672Z,-2.04
2018-12-21T18:24:41.050Z,-2.32
2018-12-21T18:27:09.345Z,-2.38
2018-12-21T18:29:39.850Z,-2.40
2018-12-21T18:32:40.944Z,-1.98
2018-12-21T18:35:15.135Z,-1.87
2018-12-21T18:37:56.452Z,-2.11
2018-12-21T18:40:24.832Z,-1.88
2018-12-21T18:42:53.240Z,-1.95
2018-12-21T18:45:21.619Z,-2.08
2018-12-21T18:47:49.821Z,-1.98
2018-12-21T18:50:17.955Z,-2.07
2018-12-21T18:52:46.148Z,-1.89
2018-12-21T18:55:17.662Z,-2.25
2018-12-21T18:57:46.050Z,-2.32
2018-12-21T19:00:16.671Z,-2.55
2018-12-21T19:02:45.309Z,-2.64
2018-12-21T19:05:13.585Z,-2.85
2018-12-21T19:07:42.169Z,-2.74
2018-12-21T19:10:12.785Z,-3.03
2018-12-21T19:12:42.994Z,-3.05
2018-12-21T19:15:14.642Z,-3.04
2018-12-21T19:17:45.279Z,-2.94
2018-12-21T19:20:15.291Z,-3.07
2018-12-21T19:22:43.552Z,-3.01
2018-12-21T19:25:15.033Z,-2.89
2018-12-21T19:27:43.439Z,-2.79
2018-12-21T19:30:12.020Z,-2.87
2018-12-21T19:32:41.680Z,-2.84
2018-12-21T19:35:11.612Z,-2.23
2018-12-21T19:37:39.812Z,-2.67
2018-12-21T19:40:09.658Z,-2.71
2018-12-21T19:42:39.640Z,-2.71
2018-12-21T19:45:11.659Z,-2.88
2018-12-21T19:47:41.292Z,-2.69
2018-12-21T19:50:11.768Z,-2.74
2018-12-21T19:52:42.733Z,-2.94
2018-12-21T19:55:21.086Z,-2.81
2018-12-21T19:57:49.979Z,-2.99
2018-12-21T20:00:18.599Z,-3.02
2018-12-21T20:02:48.289Z,-2.80
2018-12-21T20:05:19.184Z,-2.71
2018-12-21T20:07:47.814Z,-2.07
2018-12-21T20:10:16.149Z,-2.40
2018-12-21T20:12:45.196Z,-2.57
2018-12-21T20:15:13.340Z,-2.42
2018-12-21T20:17:43.258Z,-2.60
2018-12-21T20:20:12.630Z,-2.62
2018-12-21T20:22:41.645Z,-2.81
2018-12-21T20:25:11.395Z,-2.60
2018-12-21T20:27:42.198Z,-2.76
2018-12-21T20:30:14.526Z,-2.74
2018-12-21T20:32:42.912Z,-2.24
2018-12-21T20:35:11.777Z,-2.49
2018-12-21T20:37:41.846Z,-2.46
2018-12-21T20:40:12.519Z,-2.42
2018-12-21T20:42:41.307Z,-2.62
2018-12-21T20:45:10.592Z,-2.74
2018-12-21T20:47:39.069Z,-2.38
2018-12-21T20:50:12.434Z,-2.51
2018-12-21T20:52:41.414Z,-2.24
2018-12-21T20:55:10.020Z,-2.18
2018-12-21T20:57:39.973Z,-2.04
2018-12-21T21:00:12.632Z,-1.75
2018-12-21T21:02:41.204Z,-1.82
2018-12-21T21:05:15.842Z,-1.85
2018-12-21T21:07:44.008Z,-1.92
2018-12-21T21:10:13.290Z,-2.12
2018-12-21T21:12:42.471Z,-2.32
2018-12-21T21:15:13.414Z,-2.65
2018-12-21T21:17:42.519Z,-2.63
2018-12-21T21:20:14.081Z,-2.82
2018-12-21T21:22:42.681Z,-3.03
2018-12-21T21:25:11.534Z,-3.01
2018-12-21T21:27:41.250Z,-2.81
2018-12-21T21:30:12.883Z,-2.87
2018-12-21T21:32:41.027Z,-2.88
2018-12-21T21:35:09.979Z,-2.59
2018-12-21T21:37:40.562Z,-2.68
2018-12-21T21:40:16.507Z,-2.74
2018-12-21T21:42:45.593Z,-2.82
2018-12-21T21:45:15.147Z,-2.50
2018-12-21T21:47:43.562Z,-2.27
2018-12-21T21:50:12.948Z,-2.18
2018-12-21T21:52:41.613Z,-2.48
2018-12-21T21:55:09.760Z,-2.52
2018-12-21T21:57:39.553Z,-2.69
2018-12-21T22:00:11.618Z,-2.62
2018-12-21T22:02:39.925Z,-2.72
2018-12-21T22:05:08.131Z,-2.70
2018-12-21T22:07:36.463Z,-2.61
2018-12-21T22:10:06.619Z,-2.66
2018-12-21T22:12:34.800Z,-2.54
2018-12-21T22:15:03.223Z,-2.59
2018-12-21T22:17:31.927Z,-2.70
2018-12-21T22:20:00.103Z,-2.74
2018-12-21T22:22:28.467Z,-2.77
2018-12-21T22:24:56.620Z,-2.74
2018-12-21T22:27:24.858Z,-2.28
2018-12-21T22:29:53.725Z,-2.35
2018-12-21T22:32:22.161Z,-2.28
2018-12-21T22:34:50.300Z,-2.22
2018-12-21T22:37:18.951Z,-2.00
2018-12-21T22:39:49.909Z,-2.35
2018-12-21T22:42:18.514Z,-2.28
2018-12-21T22:44:47.819Z,-2.28
2018-12-21T22:47:17.432Z,-2.44
2018-12-21T22:49:47.506Z,-2.52
2018-12-21T22:52:16.059Z,-2.63
2018-12-21T22:54:44.237Z,-2.57
2018-12-21T22:57:12.334Z,-2.55
2018-12-21T22:59:40.487Z,-2.48
2018-12-21T23:02:08.708Z,-2.56
2018-12-21T23:04:36.909Z,-2.52
2018-12-21T23:07:05.090Z,-2.46
2018-12-21T23:09:33.334Z,-2.46
2018-12-21T23:12:01.571Z,-2.54
2018-12-21T23:14:29.735Z,-2.61
2018-12-21T23:16:57.921Z,-3.00
2018-12-21T23:19:26.136Z,-3.14
2018-12-21T23:21:54.276Z,-2.95
2018-12-21T23:24:22.470Z,-3.05
2018-12-21T23:26:50.736Z,-3.21
2018-12-21T23:29:18.902Z,-3.29
2018-12-21T23:31:47.041Z,-3.39
2018-12-21T23:34:15.164Z,-3.33
2018-12-21T23:36:43.296Z,-3.29
2018-12-21T23:39:11.387Z,-3.17
2018-12-21T23:41:39.652Z,-3.20
2018-12-21T23:44:07.752Z,-3.39
2018-12-21T23:46:35.932Z,-2.90
2018-12-21T23:49:04.145Z,-3.11
2018-12-21T23:51:32.384Z,-3.17
2018-12-21T23:54:00.623Z,-3.20
2018-12-21T23:56:28.764Z,-3.32
2018-12-21T23:58:56.923Z,-3.32
